createdAt,value
2024-02-26T00:01:13.181Z,70.36
2024-02-26T00:06:16.896Z,70.86
2024-02-26T00:11:20.618Z,71.98
2024-02-26T00:16:25.671Z,70.36
2024-02-26T00:21:29.227Z,70.96
2024-02-26T00:26:32.815Z,70.77
2024-02-26T00:31:39.313Z,71.02
2024-02-26T00:36:42.934Z,70.97
2024-02-26T00:41:46.553Z,70.36
2024-02-26T00:46:51.599Z,70.08
2024-02-26T00:51:55.164Z,72.12
2024-02-26T00:56:58.898Z,70.88
2024-02-26T01:02:05.516Z,71.09
2024-02-26T01:07:09.188Z,72.07
2024-02-26T01:12:13.006Z,72.22
2024-02-26T01:17:18.013Z,71.63
2024-02-26T01:22:22.209Z,70.58
2024-02-26T01:27:28.537Z,70.10
2024-02-26T01:32:33.743Z,72.03
2024-02-26T01:37:37.296Z,70.09
2024-02-26T01:42:42.205Z,71.03
2024-02-26T01:47:47.713Z,70.94
2024-02-26T01:52:52.605Z,71.10
2024-02-26T01:57:56.450Z,71.65
2024-02-26T02:03:01.612Z,70.66
2024-02-26T02:08:06.372Z,71.46
2024-02-26T02:13:10.270Z,71.48
2024-02-26T02:18:15.521Z,70.97
2024-02-26T02:23:20.710Z,71.38
2024-02-26T02:28:24.456Z,70.95
2024-02-26T02:33:28.901Z,70.79
2024-02-26T02:38:35.187Z,71.99
2024-02-26T02:43:38.799Z,70.96
2024-02-26T02:48:44.257Z,71.33
2024-02-26T02:53:49.432Z,71.86
2024-02-26T02:58:53.028Z,71.42
2024-02-26T03:03:56.624Z,69.92
2024-02-26T03:09:02.268Z,71.24
2024-02-26T03:14:06.233Z,70.09
2024-02-26T03:19:09.972Z,71.83
2024-02-26T03:24:15.976Z,71.28
2024-02-26T03:29:19.627Z,71.73
2024-02-26T03:34:23.354Z,70.85
2024-02-26T03:39:28.644Z,70.92
2024-02-26T03:44:32.262Z,71.55
2024-02-26T03:49:36.016Z,70.96
2024-02-26T03:54:41.109Z,70.31
2024-02-26T03:59:44.720Z,70.93
2024-02-26T04:04:49.051Z,70.42
2024-02-26T04:09:54.199Z,69.80
2024-02-26T04:14:57.923Z,71.13
2024-02-26T04:20:01.562Z,70.79
2024-02-26T04:25:07.175Z,71.48
2024-02-26T04:30:11.673Z,69.79
2024-02-26T04:35:15.290Z,70.85
2024-02-26T04:40:20.282Z,69.30
2024-02-26T04:45:23.878Z,69.70
2024-02-26T04:50:27.529Z,70.59
2024-02-26T04:55:32.554Z,70.25
2024-02-26T05:00:36.181Z,70.50
2024-02-26T05:05:39.881Z,70.65
2024-02-26T05:10:44.918Z,71.01
2024-02-26T05:15:50.467Z,69.28
2024-02-26T05:20:54.114Z,68.84
2024-02-26T05:25:59.169Z,69.81
2024-02-26T05:31:03.026Z,69.21
2024-02-26T05:36:07.168Z,70.48
2024-02-26T05:41:12.149Z,70.84
2024-02-26T05:46:16.724Z,70.17
2024-02-26T05:51:20.517Z,68.96
2024-02-26T05:56:25.656Z,69.92
2024-02-26T06:01:29.344Z,70.19
2024-02-26T06:06:33.342Z,70.50
2024-02-26T06:11:38.401Z,69.73
2024-02-26T06:16:42.001Z,70.59
2024-02-26T06:21:45.576Z,70.67
2024-02-26T06:26:50.619Z,68.71
2024-02-26T06:31:54.230Z,70.07
2024-02-26T06:36:57.815Z,69.77
2024-02-26T06:42:02.932Z,69.91
2024-02-26T06:47:06.938Z,69.18
2024-02-26T06:52:10.529Z,69.43
2024-02-26T06:57:15.688Z,69.51
2024-02-26T07:02:19.283Z,69.46
2024-02-26T07:07:23.815Z,68.64
2024-02-26T07:12:28.884Z,68.61
2024-02-26T07:17:32.485Z,69.37
2024-02-26T07:22:36.095Z,69.72
2024-02-26T07:27:41.250Z,70.49
2024-02-26T07:32:49.118Z,70.07
2024-02-26T07:37:54.780Z,70.33
2024-02-26T07:42:59.845Z,68.49
2024-02-26T07:48:03.492Z,68.95
2024-02-26T07:53:07.197Z,68.67
2024-02-26T07:58:12.213Z,69.60
2024-02-26T08:03:17.353Z,69.52
2024-02-26T08:08:21.148Z,68.33
2024-02-26T08:13:26.198Z,68.83
2024-02-26T08:18:30.075Z,68.61
2024-02-26T08:23:33.778Z,69.87
2024-02-26T08:28:39.382Z,68.91
2024-02-26T08:33:43.167Z,69.85
2024-02-26T08:38:46.874Z,68.16
2024-02-26T08:43:51.894Z,68.67
2024-02-26T08:48:55.589Z,68.22
2024-02-26T08:53:59.988Z,69.52
2024-02-26T08:59:05.584Z,68.28
2024-02-26T09:04:09.247Z,68.68
2024-02-26T09:09:12.956Z,69.19
2024-02-26T09:14:18.016Z,68.42
2024-02-26T09:19:21.815Z,68.54
2024-02-26T09:24:25.574Z,67.91
2024-02-26T09:29:30.808Z,69.42
2024-02-26T09:34:35.291Z,67.64
2024-02-26T09:39:39.093Z,69.49
2024-02-26T09:44:45.217Z,67.96
2024-02-26T09:49:50.478Z,69.25
2024-02-26T09:54:54.218Z,69.17
2024-02-26T10:00:03.029Z,68.81
2024-02-26T10:05:07.827Z,68.06
2024-02-26T10:10:12.225Z,68.39
2024-02-26T10:15:17.396Z,68.63
2024-02-26T10:20:23.435Z,69.02
2024-02-26T10:25:27.374Z,68.68
2024-02-26T10:30:32.992Z,67.95
2024-02-26T10:35:41.779Z,67.92
2024-02-26T10:40:45.487Z,69.77
2024-02-26T10:45:50.577Z,68.27
2024-02-26T10:50:54.503Z,69.08
2024-02-26T10:56:01.464Z,69.29
2024-02-26T11:01:07.588Z,67.84
2024-02-26T11:06:11.956Z,68.02
2024-02-26T11:11:16.649Z,67.68
2024-02-26T11:16:23.067Z,67.56
2024-02-26T11:21:31.353Z,68.87
2024-02-26T11:26:36.283Z,69.44
2024-02-26T11:31:42.503Z,69.43
2024-02-26T11:36:46.126Z,67.62
2024-02-26T11:41:49.724Z,69.30
2024-02-26T11:46:54.827Z,67.66
2024-02-26T11:52:01.070Z,67.69
2024-02-26T11:57:04.853Z,68.35
2024-02-26T12:02:10.187Z,67.59
2024-02-26T12:07:15.209Z,68.65
2024-02-26T12:12:21.178Z,68.33
2024-02-26T12:17:28.887Z,67.40
2024-02-26T12:22:32.584Z,68.34
2024-02-26T12:27:36.197Z,69.18
2024-02-26T12:32:41.355Z,68.52
2024-02-26T12:37:45.168Z,68.45
2024-02-26T12:42:48.887Z,69.16
2024-02-26T12:47:54.055Z,68.07
2024-02-26T12:52:57.729Z,67.59
2024-02-26T12:58:01.351Z,67.97
2024-02-26T13:03:07.055Z,67.71
2024-02-26T13:08:10.740Z,68.40
2024-02-26T13:13:17.384Z,68.57
2024-02-26T13:18:22.622Z,67.64
2024-02-26T13:23:26.348Z,68.44
2024-02-26T13:28:29.963Z,67.40
2024-02-26T13:33:35.194Z,67.74
2024-02-26T13:38:41.055Z,68.21
2024-02-26T13:43:46.094Z,68.24
2024-02-26T13:48:51.220Z,68.51
2024-02-26T13:53:55.004Z,67.71
2024-02-26T13:58:58.632Z,68.07
2024-02-26T14:04:05.956Z,68.97
2024-02-26T14:09:10.706Z,69.05
2024-02-26T14:14:14.549Z,67.73
2024-02-26T14:19:19.620Z,68.96
2024-02-26T14:24:23.285Z,67.44
2024-02-26T14:29:26.858Z,69.31
2024-02-26T14:34:32.047Z,68.59
2024-02-26T14:39:35.948Z,68.48
2024-02-26T14:44:39.662Z,68.31
2024-02-26T14:49:44.910Z,67.80
2024-02-26T14:54:48.589Z,68.00
2024-02-26T14:59:52.380Z,68.35
2024-02-26T15:04:57.453Z,68.98
2024-02-26T15:10:02.061Z,67.79
2024-02-26T15:15:07.274Z,67.29
2024-02-26T15:20:13.873Z,68.33
2024-02-26T15:25:17.890Z,67.33
2024-02-26T15:30:21.689Z,67.52
2024-02-26T15:35:26.767Z,68.53
2024-02-26T15:40:30.373Z,68.06
2024-02-26T15:45:35.036Z,69.00
2024-02-26T15:50:42.446Z,67.88
2024-02-26T15:55:46.187Z,68.79
2024-02-26T16:00:50.036Z,67.27
2024-02-26T16:05:55.246Z,67.29
2024-02-26T16:10:59.403Z,68.32
2024-02-26T16:16:06.817Z,68.91
2024-02-26T16:21:12.335Z,67.71
2024-02-26T16:26:15.941Z,69.16
2024-02-26T16:31:19.508Z,68.91
2024-02-26T16:36:24.546Z,69.23
2024-02-26T16:41:28.156Z,68.31
2024-02-26T16:46:31.818Z,68.54
2024-02-26T16:51:39.552Z,68.20
2024-02-26T16:56:43.123Z,68.59
2024-02-26T17:01:47.977Z,67.78
2024-02-26T17:06:54.511Z,68.67
2024-02-26T17:11:58.478Z,67.82
2024-02-26T17:17:02.131Z,67.94
2024-02-26T17:22:08.426Z,69.05
2024-02-26T17:27:12.048Z,67.28
2024-02-26T17:32:16.472Z,68.63
2024-02-26T17:37:21.726Z,67.58
2024-02-26T17:42:25.335Z,67.48
2024-02-26T17:47:29.012Z,67.87
2024-02-26T17:52:37.773Z,68.29
2024-02-26T17:57:41.684Z,68.90
2024-02-26T18:02:45.263Z,68.19
2024-02-26T18:07:50.265Z,67.76
2024-02-26T18:12:54.490Z,69.15
2024-02-26T18:17:58.361Z,68.94
2024-02-26T18:23:04.251Z,67.50
2024-02-26T18:28:07.942Z,67.51
2024-02-26T18:33:11.683Z,68.17
2024-02-26T18:38:16.889Z,68.76
2024-02-26T18:43:20.477Z,67.53
2024-02-26T18:48:25.719Z,69.03
2024-02-26T18:53:30.839Z,67.42
2024-02-26T18:58:34.415Z,68.34
2024-02-26T19:03:38.068Z,67.42
2024-02-26T19:08:43.144Z,68.83
2024-02-26T19:13:46.717Z,68.63
2024-02-26T19:18:50.424Z,67.42
2024-02-26T19:23:55.519Z,67.51
2024-02-26T19:28:59.122Z,67.39
2024-02-26T19:34:03.040Z,67.42
2024-02-26T19:39:09.011Z,67.15
2024-02-26T19:44:14.375Z,67.65
2024-02-26T19:49:17.998Z,67.28
2024-02-26T19:54:23.073Z,67.32
2024-02-26T19:59:26.724Z,67.21
2024-02-26T20:04:31.164Z,67.13
2024-02-26T20:09:36.347Z,67.22
2024-02-26T20:14:40.339Z,67.98
2024-02-26T20:19:44.836Z,68.12
2024-02-26T20:24:50.167Z,67.35
2024-02-26T20:29:57.202Z,66.80
2024-02-26T20:35:01.104Z,68.17
2024-02-26T20:40:08.554Z,68.08
2024-02-26T20:45:13.313Z,67.73
2024-02-26T20:50:17.131Z,68.31
2024-02-26T20:55:22.888Z,67.72
2024-02-26T21:00:26.513Z,66.67
2024-02-26T21:05:30.220Z,67.44
2024-02-26T21:10:35.773Z,68.09
2024-02-26T21:15:39.707Z,67.11
2024-02-26T21:20:43.542Z,67.72
2024-02-26T21:25:48.632Z,67.74
2024-02-26T21:30:55.761Z,67.58
2024-02-26T21:35:59.416Z,68.05
2024-02-26T21:41:04.526Z,67.03
2024-02-26T21:46:08.180Z,66.31
2024-02-26T21:51:11.824Z,66.80
2024-02-26T21:56:17.087Z,66.53
2024-02-26T22:01:20.709Z,67.85
2024-02-26T22:06:24.390Z,67.78
2024-02-26T22:11:29.557Z,67.64
2024-02-26T22:16:33.406Z,67.09
2024-02-26T22:21:37.537Z,67.55
2024-02-26T22:26:45.297Z,67.41
2024-02-26T22:31:53.450Z,66.48
2024-02-26T22:36:57.084Z,67.53
2024-02-26T22:42:02.606Z,67.20
2024-02-26T22:47:06.833Z,66.02
2024-02-26T22:52:10.624Z,66.18
2024-02-26T22:57:15.716Z,66.20
2024-02-26T23:02:20.074Z,66.39
2024-02-26T23:07:23.779Z,67.32
2024-02-26T23:12:28.860Z,67.32
2024-02-26T23:17:34.722Z,67.61
2024-02-26T23:22:38.442Z,66.04
2024-02-26T23:27:45.170Z,66.00
2024-02-26T23:32:48.878Z,66.36
2024-02-26T23:37:52.457Z,67.14
2024-02-26T23:42:57.632Z,66.95
2024-02-26T23:48:01.366Z,66.64
2024-02-26T23:53:05.826Z,66.83
2024-02-26T23:58:10.807Z,67.40
